Westfield, IA (51062)

6:20 PM CST on February 08, 2016 (GMT -0600)
Rural Elk Point | | Change Station
CLOSE
Current Station
Personal Weather Station
Location: Elk Point, SD
Elevation: 1119 ft
Nearby Weather Stations

Elev 1119 ft 42.63 °N, 96.64 °W | Updated 5 minutes ago

Partly Cloudy
Partly Cloudy
24.4 °F
Feels Like 13 °F
N
12.1
Wind Variable Wind from North
Gusts 13.0 mph

Today
High -- | Low -- °F
--% Chance of Precip.
Yesterday
High -- | Low -- °F
Precip. -- in
Pressure 30.12 in
Visibility 10.0 miles
Clouds Clear
Windchill 13 °F
Dew Point 14 °F
Humidity 64%
Rainfall 13.56 in
Snow Depth Not available.
7:32 AM 5:48 PM
New Moon, 0% visible
METAR KLRJ 082355Z AUTO 34010KT 10SM CLR M04/M08 A3012 RMK AO2
Pressure 30.12 in
Visibility 10.0 miles
Clouds Clear
Windchill 13 °F
Dew Point 14 °F
Humidity 64%
Rainfall 13.56 in
Snow Depth Not available.
7:32 AM 5:48 PM
New Moon, 0% visible
METAR KLRJ 082355Z AUTO 34010KT 10SM CLR M04/M08 A3012 RMK AO2

10-Day Weather Forecast

Almanac

Astronomy

Feb. 08, 2016 Rise Set
Actual Time
Civil Twilight
Nautical Twilight
Astronomical Twilight
Moon
Length of Visible Light
Length of Day
Tomorrow will be .
, % of the Moon is Illuminated

Today's Extremes

State Highs State Lows

Community

WunderPhotos

Upload Photos

1,891,527 photos uploaded!

WunderBlog® & News

Nearby

Air Quality

  Air Quality AQ Index Pollutant
Not available.

Snow Depth

Station Depth Elevation

Earthquake Activity

City Distance Mag. Time & Date
Minimum magnitude displayed is 2.5.

Coastal Water Temperatures

Place Temperature

Stations

Nearby Weather Stations

Station Location Temp. Windchill Dew Point Humidity Wind Precip. Elev Updated Type
                   

Watches & Warnings

There are currently no watches in effect.